createdAt,value
2023-02-02T00:01:10.593Z,95980.00
2023-02-02T00:05:13.421Z,95983.00
2023-02-02T00:09:18.072Z,95971.00
2023-02-02T00:13:20.870Z,95980.00
2023-02-02T00:17:25.119Z,95959.00
2023-02-02T00:21:28.723Z,95964.00
2023-02-02T00:25:32.068Z,95956.00
2023-02-02T00:29:35.079Z,95947.00
2023-02-02T00:33:39.420Z,95958.00
2023-02-02T00:37:42.347Z,95960.00
2023-02-02T00:41:45.371Z,95961.00
2023-02-02T00:45:48.627Z,95975.00
2023-02-02T00:49:52.829Z,95952.00
2023-02-02T00:53:55.563Z,95947.00
2023-02-02T00:57:58.458Z,95943.00
2023-02-02T01:02:02.108Z,95957.00
2023-02-02T01:06:06.700Z,95956.00
2023-02-02T01:10:14.654Z,95944.00
2023-02-02T01:14:18.833Z,95945.00
2023-02-02T01:18:21.629Z,95944.00
2023-02-02T01:22:25.929Z,95944.00
2023-02-02T01:26:28.827Z,95951.00
2023-02-02T01:30:31.696Z,95955.00
2023-02-02T01:34:34.540Z,95948.00
2023-02-02T01:38:39.167Z,95943.00
2023-02-02T01:42:41.981Z,95933.00
2023-02-02T01:46:45.465Z,95935.00
2023-02-02T01:50:51.493Z,95945.00
2023-02-02T01:55:00.314Z,95939.00
2023-02-02T01:59:04.415Z,95954.00
2023-02-02T02:03:12.386Z,95931.00
2023-02-02T02:07:15.836Z,95934.00
2023-02-02T02:11:20.242Z,95934.00
2023-02-02T02:15:41.003Z,95934.00
2023-02-02T02:20:40.211Z,95934.00
2023-02-02T02:25:38.938Z,95941.00
2023-02-02T02:30:00.616Z,95937.00
2023-02-02T02:34:10.641Z,95926.00
2023-02-02T02:38:22.630Z,95925.00
2023-02-02T02:42:29.905Z,95904.00
2023-02-02T02:46:33.905Z,95908.00
2023-02-02T02:50:38.618Z,95901.00
2023-02-02T02:54:46.646Z,95906.00
2023-02-02T02:58:56.134Z,95914.00
2023-02-02T03:03:08.815Z,95910.00
2023-02-02T03:07:21.319Z,95915.00
2023-02-02T03:11:24.134Z,95907.00
2023-02-02T03:15:27.204Z,95911.00
2023-02-02T03:19:30.136Z,95904.00
2023-02-02T03:23:34.382Z,95923.00
2023-02-02T03:27:38.121Z,95909.00
2023-02-02T03:31:41.140Z,95895.00
2023-02-02T03:35:44.051Z,95912.00
2023-02-02T03:39:48.286Z,95915.00
2023-02-02T03:43:51.068Z,95909.00
2023-02-02T03:47:53.925Z,95918.00
2023-02-02T03:51:56.751Z,95919.00
2023-02-02T03:56:00.947Z,95921.00
2023-02-02T04:00:04.434Z,95928.00
2023-02-02T04:04:15.060Z,95930.00
2023-02-02T04:08:17.990Z,95905.00
2023-02-02T04:12:22.130Z,95918.00
2023-02-02T04:16:25.129Z,95918.00
2023-02-02T04:20:28.028Z,95921.00
2023-02-02T04:24:30.845Z,95929.00
2023-02-02T04:28:35.286Z,95922.00
2023-02-02T04:32:38.081Z,95929.00
2023-02-02T04:36:40.872Z,95932.00
2023-02-02T04:40:45.036Z,95934.00
2023-02-02T04:44:49.278Z,95932.00
2023-02-02T04:48:52.087Z,95945.00
2023-02-02T04:52:54.946Z,95949.00
2023-02-02T04:56:57.868Z,95943.00
2023-02-02T05:01:02.372Z,95964.00
2023-02-02T05:05:06.742Z,95944.00
2023-02-02T05:09:09.550Z,95938.00
2023-02-02T05:13:12.331Z,95943.00
2023-02-02T05:17:16.529Z,95949.00
2023-02-02T05:21:19.405Z,95934.00
2023-02-02T05:25:22.418Z,95954.00
2023-02-02T05:29:25.609Z,95959.00
2023-02-02T05:33:29.834Z,95958.00
2023-02-02T05:37:32.689Z,95976.00
2023-02-02T05:41:35.497Z,95960.00
2023-02-02T05:45:38.368Z,95977.00
2023-02-02T05:49:42.607Z,95962.00
2023-02-02T05:53:46.009Z,95962.00
2023-02-02T05:57:48.805Z,95975.00
2023-02-02T06:01:52.288Z,95963.00
2023-02-02T06:05:56.450Z,95970.00
2023-02-02T06:09:59.339Z,95976.00
2023-02-02T06:14:02.445Z,95956.00
2023-02-02T06:18:06.813Z,95990.00
2023-02-02T06:22:10.977Z,95982.00
2023-02-02T06:26:14.196Z,95986.00
2023-02-02T06:30:17.476Z,95994.00
2023-02-02T06:34:20.374Z,95987.00
2023-02-02T06:38:24.732Z,95986.00
2023-02-02T06:42:27.516Z,95983.00
2023-02-02T06:46:30.406Z,95983.00
2023-02-02T06:50:33.228Z,95994.00
2023-02-02T06:54:37.426Z,95990.00
2023-02-02T06:58:40.324Z,96007.00
2023-02-02T07:02:46.712Z,96017.00
2023-02-02T07:06:49.645Z,96016.00
2023-02-02T07:11:14.445Z,96025.00
2023-02-02T07:15:16.543Z,96021.00
2023-02-02T07:19:19.312Z,96024.00
2023-02-02T07:23:22.104Z,96038.00
2023-02-02T07:27:26.315Z,96040.00
2023-02-02T07:31:29.340Z,96038.00
2023-02-02T07:35:32.196Z,96037.00
2023-02-02T07:39:34.995Z,96040.00
2023-02-02T07:43:39.375Z,96058.00
2023-02-02T07:47:42.252Z,96038.00
2023-02-02T07:51:47.768Z,96059.00
2023-02-02T07:55:50.781Z,96058.00
2023-02-02T07:59:55.033Z,96041.00
2023-02-02T08:04:01.307Z,96044.00
2023-02-02T08:08:03.971Z,96056.00
2023-02-02T08:12:06.954Z,96060.00
2023-02-02T08:16:11.717Z,96067.00
2023-02-02T08:20:14.781Z,96073.00
2023-02-02T08:24:17.584Z,96069.00
2023-02-02T08:28:20.554Z,96084.00
2023-02-02T08:32:24.722Z,96090.00
2023-02-02T08:36:29.396Z,96101.00
2023-02-02T08:40:32.277Z,96081.00
2023-02-02T08:44:52.896Z,96101.00
2023-02-02T08:49:00.064Z,96105.00
2023-02-02T08:53:02.943Z,96100.00
2023-02-02T08:57:05.803Z,96102.00
2023-02-02T09:01:12.757Z,96095.00
2023-02-02T09:05:17.109Z,96116.00
2023-02-02T09:09:19.953Z,96107.00
2023-02-02T09:13:23.416Z,96111.00
2023-02-02T09:17:26.223Z,96112.00
2023-02-02T09:21:30.465Z,96112.00
2023-02-02T09:25:33.251Z,96128.00
2023-02-02T09:29:36.287Z,96130.00
2023-02-02T09:33:39.526Z,96118.00
2023-02-02T09:37:45.288Z,96126.00
2023-02-02T09:42:03.277Z,96133.00
2023-02-02T09:46:17.059Z,96150.00
2023-02-02T09:50:28.857Z,96139.00
2023-02-02T09:54:38.260Z,96135.00
2023-02-02T09:58:46.802Z,96150.00
2023-02-02T10:02:52.210Z,96126.00
2023-02-02T10:06:58.225Z,96142.00
2023-02-02T10:11:06.364Z,96133.00
2023-02-02T10:15:18.677Z,96130.00
2023-02-02T10:19:25.293Z,96146.00
2023-02-02T10:23:30.386Z,96152.00
2023-02-02T10:27:39.363Z,96146.00
2023-02-02T10:31:54.989Z,96141.00
2023-02-02T10:36:08.204Z,96146.00
2023-02-02T10:40:22.483Z,96147.00
2023-02-02T10:44:35.880Z,96133.00
2023-02-02T10:48:39.136Z,96148.00
2023-02-02T10:52:47.397Z,96133.00
2023-02-02T10:56:55.000Z,96140.00
2023-02-02T11:01:01.312Z,96123.00
2023-02-02T11:05:21.821Z,96118.00
2023-02-02T11:09:28.591Z,96120.00
2023-02-02T11:13:34.559Z,96118.00
2023-02-02T11:17:39.447Z,96124.00
2023-02-02T11:21:42.328Z,96126.00
2023-02-02T11:25:45.674Z,96120.00
2023-02-02T11:29:50.704Z,96128.00
2023-02-02T11:33:54.898Z,96135.00
2023-02-02T11:38:10.650Z,96130.00
2023-02-02T11:42:17.145Z,96149.00
2023-02-02T11:46:21.751Z,96150.00
2023-02-02T11:50:28.270Z,96140.00
2023-02-02T11:54:34.221Z,96136.00
2023-02-02T12:03:24.624Z,96143.00
2023-02-02T12:07:31.963Z,96141.00
2023-02-02T12:11:45.534Z,96139.00
2023-02-02T12:15:55.602Z,96136.00
2023-02-02T12:20:18.080Z,96134.00
2023-02-02T12:24:31.316Z,96148.00
2023-02-02T12:28:58.194Z,96127.00
2023-02-02T12:33:05.885Z,96127.00
2023-02-02T12:37:18.746Z,96132.00
2023-02-02T12:41:44.731Z,96130.00
2023-02-02T12:46:09.137Z,96140.00
2023-02-02T12:50:28.433Z,96137.00
2023-02-02T12:54:52.238Z,96127.00
2023-02-02T12:59:13.916Z,96141.00
2023-02-02T13:03:27.678Z,96135.00
2023-02-02T13:07:41.869Z,96147.00
2023-02-02T13:11:50.519Z,96142.00
2023-02-02T13:15:58.709Z,96142.00
2023-02-02T13:20:06.380Z,96155.00
2023-02-02T13:24:15.584Z,96163.00
2023-02-02T13:28:32.998Z,96173.00
2023-02-02T13:32:39.580Z,96178.00
2023-02-02T13:36:47.544Z,96179.00
2023-02-02T13:40:52.165Z,96195.00
2023-02-02T13:44:59.834Z,96195.00
2023-02-02T13:49:10.843Z,96197.00
2023-02-02T13:53:34.383Z,96200.00
2023-02-02T13:58:00.285Z,96208.00
2023-02-02T14:02:04.645Z,96184.00
2023-02-02T14:06:13.303Z,96208.00
2023-02-02T14:10:27.688Z,96206.00
2023-02-02T14:14:35.250Z,96199.00
2023-02-02T14:18:55.906Z,96218.00
2023-02-02T14:23:00.247Z,96212.00
2023-02-02T14:27:05.391Z,96217.00
2023-02-02T14:31:33.217Z,96219.00
2023-02-02T14:36:01.658Z,96219.00
2023-02-02T14:40:25.439Z,96218.00
2023-02-02T14:44:30.718Z,96232.00
2023-02-02T14:48:33.935Z,96245.00
2023-02-02T14:52:36.900Z,96236.00
2023-02-02T14:56:49.713Z,96223.00
2023-02-02T15:01:02.219Z,96219.00
2023-02-02T15:05:46.174Z,96219.00
2023-02-02T15:09:49.419Z,96220.00
2023-02-02T15:14:02.307Z,96235.00
2023-02-02T15:18:12.637Z,96203.00
2023-02-02T15:22:28.048Z,96218.00
2023-02-02T15:26:35.671Z,96219.00
2023-02-02T15:30:44.429Z,96221.00
2023-02-02T15:34:51.012Z,96249.00
2023-02-02T15:38:56.568Z,96238.00
2023-02-02T15:43:02.030Z,96259.00
2023-02-02T15:47:11.506Z,96254.00
2023-02-02T15:51:20.327Z,96277.00
2023-02-02T15:55:26.009Z,96279.00
2023-02-02T15:59:31.544Z,96289.00
2023-02-02T16:03:46.760Z,96283.00
2023-02-02T16:08:03.765Z,96290.00
2023-02-02T16:12:18.201Z,96281.00
2023-02-02T16:16:25.101Z,96295.00
2023-02-02T16:20:30.732Z,96322.00
2023-02-02T16:24:36.047Z,96295.00
2023-02-02T16:28:39.082Z,96300.00
2023-02-02T16:32:44.022Z,96313.00
2023-02-02T16:37:13.287Z,96314.00
2023-02-02T16:41:28.446Z,96321.00
2023-02-02T16:45:36.074Z,96321.00
2023-02-02T16:49:39.631Z,96333.00
2023-02-02T16:53:46.506Z,96333.00
2023-02-02T16:57:51.713Z,96350.00
2023-02-02T17:01:58.688Z,96349.00
2023-02-02T17:06:02.268Z,96363.00
2023-02-02T17:10:22.142Z,96349.00
2023-02-02T17:14:34.801Z,96377.00
2023-02-02T17:18:37.643Z,96365.00
2023-02-02T17:22:42.964Z,96380.00
2023-02-02T17:26:48.184Z,96387.00
2023-02-02T17:31:00.915Z,96391.00
2023-02-02T17:35:08.525Z,96401.00
2023-02-02T17:39:11.891Z,96395.00
2023-02-02T17:43:16.701Z,96403.00
2023-02-02T17:47:20.480Z,96423.00
2023-02-02T17:51:23.473Z,96415.00
2023-02-02T17:55:28.592Z,96402.00
2023-02-02T17:59:32.853Z,96408.00
2023-02-02T18:03:38.743Z,96418.00
2023-02-02T18:07:41.550Z,96436.00
2023-02-02T18:11:45.542Z,96444.00
2023-02-02T18:15:50.855Z,96449.00
2023-02-02T18:19:55.171Z,96460.00
2023-02-02T18:23:58.046Z,96461.00
2023-02-02T18:28:00.907Z,96451.00
2023-02-02T18:32:05.441Z,96469.00
2023-02-02T18:36:11.806Z,96463.00
2023-02-02T18:40:14.830Z,96483.00
2023-02-02T18:44:17.717Z,96471.00
2023-02-02T18:48:21.920Z,96487.00
2023-02-02T18:52:24.710Z,96487.00
2023-02-02T18:56:28.183Z,96484.00
2023-02-02T19:00:31.024Z,96494.00
2023-02-02T19:04:35.722Z,96477.00
2023-02-02T19:08:38.675Z,96471.00
2023-02-02T19:12:42.159Z,96498.00
2023-02-02T19:16:46.298Z,96485.00
2023-02-02T19:20:51.249Z,96490.00
2023-02-02T19:24:54.062Z,96517.00
2023-02-02T19:29:03.878Z,96513.00
2023-02-02T19:33:11.699Z,96503.00
2023-02-02T19:37:23.325Z,96502.00
2023-02-02T19:41:27.240Z,96520.00
2023-02-02T19:45:32.729Z,96523.00
2023-02-02T19:49:37.528Z,96518.00
2023-02-02T19:53:42.390Z,96518.00
2023-02-02T19:57:45.252Z,96519.00
2023-02-02T20:01:50.644Z,96532.00
2023-02-02T20:05:56.374Z,96537.00
2023-02-02T20:10:16.095Z,96532.00
2023-02-02T20:14:29.133Z,96545.00
2023-02-02T20:18:42.945Z,96538.00
2023-02-02T20:22:45.852Z,96540.00
2023-02-02T20:26:51.407Z,96557.00
2023-02-02T20:30:54.328Z,96558.00
2023-02-02T20:34:59.505Z,96570.00
2023-02-02T20:39:22.032Z,96557.00
2023-02-02T20:43:26.358Z,96574.00
2023-02-02T20:47:30.001Z,96569.00
2023-02-02T20:51:32.905Z,96557.00
2023-02-02T20:55:36.891Z,96579.00
2023-02-02T20:59:41.121Z,96578.00
2023-02-02T21:03:44.042Z,96585.00
2023-02-02T21:07:46.944Z,96576.00
2023-02-02T21:11:49.866Z,96592.00
2023-02-02T21:15:54.856Z,96583.00
2023-02-02T21:19:57.719Z,96597.00
2023-02-02T21:24:01.018Z,96576.00
2023-02-02T21:28:03.897Z,96599.00
2023-02-02T21:32:09.387Z,96588.00
2023-02-02T21:36:27.372Z,96604.00
2023-02-02T21:40:34.453Z,96593.00
2023-02-02T21:44:39.354Z,96608.00
2023-02-02T21:48:44.091Z,96597.00
2023-02-02T21:52:47.591Z,96606.00
2023-02-02T21:56:52.858Z,96607.00
2023-02-02T22:01:00.373Z,96598.00
2023-02-02T22:05:16.581Z,96603.00
2023-02-02T22:09:22.494Z,96603.00
2023-02-02T22:13:26.555Z,96597.00
2023-02-02T22:17:39.491Z,96600.00
2023-02-02T22:21:43.690Z,96596.00
2023-02-02T22:25:48.468Z,96606.00
2023-02-02T22:29:56.290Z,96616.00
2023-02-02T22:33:59.238Z,96611.00
2023-02-02T22:38:03.830Z,96622.00
2023-02-02T22:42:07.045Z,96629.00
2023-02-02T22:46:09.921Z,96617.00
2023-02-02T22:50:13.989Z,96629.00
2023-02-02T22:54:18.244Z,96627.00
2023-02-02T22:58:21.088Z,96622.00
2023-02-02T23:02:24.025Z,96635.00
2023-02-02T23:06:26.832Z,96627.00
2023-02-02T23:10:35.313Z,96623.00
2023-02-02T23:14:38.096Z,96624.00
2023-02-02T23:18:40.879Z,96634.00
2023-02-02T23:22:43.989Z,96643.00
2023-02-02T23:26:48.142Z,96637.00
2023-02-02T23:30:54.400Z,96628.00
2023-02-02T23:34:57.324Z,96626.00
2023-02-02T23:39:00.356Z,96632.00
2023-02-02T23:43:04.617Z,96620.00
2023-02-02T23:47:07.679Z,96626.00
2023-02-02T23:51:10.872Z,96619.00
2023-02-02T23:55:14.551Z,96607.00
2023-02-02T23:59:18.732Z,96606.00
